首页
METAR-TAF:

METAR-TAF

机场 :

乞力马扎罗山, 坦桑尼亚

纬度: 03-25S, 经度: 037-04E, 海拔: 891米

当前天气观测

该预报发布于1小时和18分钟前的20:00 UTC
风速5节,风向西北
温度 17°C
湿度 82%
气压 1021 hPa
能见度10公里或以上
少量云层高于2000英尺

METAR: HTKJ 172000Z 31005KT 9999 FEW020 17/14 Q1021 NOSIG

时间: 00:18 (21:18 UTC)

预报

该预报发布于4小时和18分钟前的17:00 UTC
预报有效从17日的 18点(UTC)到 18日的 18点(UTC)
风速5节,风向
能见度10公里或以上
散云层高于2400英尺

TAF: HTKJ 171700Z 1718/1818 09005KT 9999 SCT024

超过4000个机场的气象观测和天气预报(METAR&TAF报告)。

可查询的气象台以黄色和红色小点在地图上表示。

将鼠标移到小点上方,可查看气象台名称。

然后点击查看天气观测和预报。

如需切换地图:点击带黑十字的绿色按钮放大地图;点击带横线的绿色按钮缩小地图;或者点击绿色箭头查看邻近地区的地图。


METAR-TAF: